Time;durP1;ratioP1;P1;durP2;ratioP2;P2;SDS_P1;SDS_P2;PMS_P1;PMS_P2;Temp;Humidity;BMP_temperature;BMP_pressure;BME280_temperature;BME280_humidity;BME280_pressure;Samples;Min_cycle;Max_cycle;Signal;HPM_P1;HPM_P2
2022/06/16 00:00:55;;;;;;;;;;;21.80;43.50;;;;;;5015473;28;19929;-60
2022/06/16 00:03:23;;;;;;;;;;;21.80;44.10;;;;;;5014685;28;19975;-60
2022/06/16 00:05:50;;;;;;;;;;;21.80;43.50;;;;;;5023507;28;19929;-60
2022/06/16 00:08:18;;;;;;;;;;;21.80;43.50;;;;;;5023124;28;19932;-60
2022/06/16 00:13:26;;;;;;;;;;;21.80;43.50;;;;;;5011858;28;19924;-60
2022/06/16 00:15:54;;;;;;;;;;;21.80;43.50;;;;;;5006498;28;19932;-59
2022/06/16 00:18:21;;;;;;;;;;;21.80;43.60;;;;;;5012704;28;19929;-61
2022/06/16 00:20:47;;;;;;;;;;;21.80;43.60;;;;;;5030984;28;19929;-60
2022/06/16 00:23:14;;;;;;;;;;;21.80;43.60;;;;;;5026565;28;19997;-60
2022/06/16 00:25:41;;;;;;;;;;;21.80;43.60;;;;;;5033187;28;19932;-60
2022/06/16 00:28:08;;;;;;;;;;;21.80;43.60;;;;;;5012221;28;20291;-59
2022/06/16 00:30:35;;;;;;;;;;;21.80;43.60;;;;;;5005106;28;19925;-60
2022/06/16 00:33:03;;;;;;;;;;;21.80;43.70;;;;;;5024471;28;19929;-59
2022/06/16 00:35:30;;;;;;;;;;;21.80;43.70;;;;;;5022076;28;19933;-60
2022/06/16 00:37:57;;;;;;;;;;;21.80;43.60;;;;;;5024876;28;19968;-60
2022/06/16 00:40:23;;;;;;;;;;;21.80;43.70;;;;;;5026633;28;19940;-60
2022/06/16 00:42:50;;;;;;;;;;;21.80;43.70;;;;;;5014794;28;19928;-59
2022/06/16 00:45:36;;;;;;;;;;;21.80;43.70;;;;;;5031273;28;20053;-60
2022/06/16 00:48:05;;;;;;;;;;;21.80;43.70;;;;;;5031234;28;20066;-60
2022/06/16 00:50:33;;;;;;;;;;;21.80;43.70;;;;;;5032396;28;19979;-60
2022/06/16 00:53:00;;;;;;;;;;;21.70;43.70;;;;;;5014482;28;19980;-59
2022/06/16 00:55:27;;;;;;;;;;;21.80;43.80;;;;;;5015293;28;19925;-60
2022/06/16 00:57:54;;;;;;;;;;;21.70;43.70;;;;;;5031523;28;19951;-60
2022/06/16 01:00:23;;;;;;;;;;;21.80;43.80;;;;;;5030232;28;19929;-61
2022/06/16 01:02:50;;;;;;;;;;;21.70;43.80;;;;;;5039142;28;19929;-60
2022/06/16 01:05:17;;;;;;;;;;;21.70;43.70;;;;;;5005536;28;20428;-60
2022/06/16 01:07:45;;;;;;;;;;;21.70;43.70;;;;;;5038842;28;20336;-60
2022/06/16 01:10:11;;;;;;;;;;;21.70;43.80;;;;;;5014223;28;20428;-61
2022/06/16 01:15:33;;;;;;;;;;;21.70;43.80;;;;;;5025237;28;20393;-60
2022/06/16 01:18:03;;;;;;;;;;;21.70;43.80;;;;;;5017247;28;19925;-60
2022/06/16 01:20:36;;;;;;;;;;;21.70;43.80;;;;;;5011471;28;19926;-61
2022/06/16 01:23:27;;;;;;;;;;;21.70;43.90;;;;;;5023309;28;19925;-60
2022/06/16 01:25:56;;;;;;;;;;;21.70;43.90;;;;;;5012498;28;19933;-61
2022/06/16 01:28:24;;;;;;;;;;;21.70;43.90;;;;;;5036772;28;19925;-60
2022/06/16 01:30:54;;;;;;;;;;;21.70;43.90;;;;;;5031836;28;19933;-61
2022/06/16 01:33:23;;;;;;;;;;;21.70;43.90;;;;;;5011299;28;20016;-60
2022/06/16 01:35:51;;;;;;;;;;;21.70;44.00;;;;;;5012972;28;20039;-61
2022/06/16 01:38:19;;;;;;;;;;;21.70;44.00;;;;;;5025426;28;19925;-60
2022/06/16 01:40:46;;;;;;;;;;;21.70;43.90;;;;;;5011443;28;19925;-60
2022/06/16 01:43:15;;;;;;;;;;;21.70;44.00;;;;;;5013180;28;19925;-61
2022/06/16 01:45:42;;;;;;;;;;;21.70;44.00;;;;;;5030944;28;19925;-60
2022/06/16 01:48:11;;;;;;;;;;;21.70;44.00;;;;;;5032290;28;19971;-60
2022/06/16 01:50:52;;;;;;;;;;;21.70;44.00;;;;;;5025361;28;19926;-59
2022/06/16 01:53:21;;;;;;;;;;;21.70;44.00;;;;;;5030435;28;19975;-60
2022/06/16 01:55:49;;;;;;;;;;;21.70;44.00;;;;;;5027738;28;19980;-60
2022/06/16 01:58:17;;;;;;;;;;;21.70;44.00;;;;;;5016717;28;19925;-61
2022/06/16 02:00:44;;;;;;;;;;;21.70;44.10;;;;;;5016806;28;20298;-60
2022/06/16 02:03:14;;;;;;;;;;;21.70;44.00;;;;;;5013812;28;20038;-59
2022/06/16 02:05:41;;;;;;;;;;;21.70;44.10;;;;;;5014191;28;19934;-59
2022/06/16 02:08:09;;;;;;;;;;;21.70;44.10;;;;;;5030977;28;19932;-60
2022/06/16 02:10:37;;;;;;;;;;;21.70;44.10;;;;;;5002106;28;20024;-59
2022/06/16 02:13:04;;;;;;;;;;;21.70;44.10;;;;;;5026348;28;19925;-60
2022/06/16 02:15:37;;;;;;;;;;;21.70;44.10;;;;;;5039294;28;20415;-58
2022/06/16 02:18:05;;;;;;;;;;;21.70;44.10;;;;;;5001260;28;19926;-60
2022/06/16 02:20:34;;;;;;;;;;;21.70;44.10;;;;;;5013714;28;19929;-60
2022/06/16 02:23:01;;;;;;;;;;;21.70;44.10;;;;;;5013588;28;19929;-60
2022/06/16 02:25:28;;;;;;;;;;;21.70;44.10;;;;;;5040722;28;20024;-60
2022/06/16 02:27:54;;;;;;;;;;;21.70;44.10;;;;;;5031787;28;19979;-60
2022/06/16 02:30:21;;;;;;;;;;;21.70;44.70;;;;;;5013250;28;20342;-60
2022/06/16 02:32:52;;;;;;;;;;;21.70;44.10;;;;;;5021096;28;20266;-59
2022/06/16 02:35:21;;;;;;;;;;;21.70;44.10;;;;;;5020211;28;20318;-60
2022/06/16 02:38:01;;;;;;;;;;;21.70;44.10;;;;;;5027824;28;19934;-60
2022/06/16 02:40:31;;;;;;;;;;;21.70;44.10;;;;;;5035207;28;20387;-59
2022/06/16 02:43:01;;;;;;;;;;;21.70;44.20;;;;;;5016665;28;20389;-59
2022/06/16 02:45:31;;;;;;;;;;;21.60;44.10;;;;;;5035114;28;19932;-60
2022/06/16 02:48:00;;;;;;;;;;;21.70;44.20;;;;;;5016914;28;19932;-59
2022/06/16 02:50:29;;;;;;;;;;;21.70;44.20;;;;;;5049930;28;19976;-59
2022/06/16 02:53:01;;;;;;;;;;;21.60;44.20;;;;;;5016158;28;19961;-60
2022/06/16 02:55:28;;;;;;;;;;;21.70;44.20;;;;;;5028807;28;19929;-59
2022/06/16 02:57:55;;;;;;;;;;;21.70;44.20;;;;;;5015044;28;19925;-60
2022/06/16 03:00:23;;;;;;;;;;;21.70;44.30;;;;;;5023270;28;20013;-60
2022/06/16 03:02:50;;;;;;;;;;;21.70;44.30;;;;;;5014741;28;19948;-59
2022/06/16 03:05:17;;;;;;;;;;;21.70;44.30;;;;;;5015598;28;20023;-60
2022/06/16 03:07:44;;;;;;;;;;;21.60;44.20;;;;;;5034839;28;19925;-59
2022/06/16 03:10:13;;;;;;;;;;;21.60;44.20;;;;;;5015981;28;19925;-60
2022/06/16 03:12:40;;;;;;;;;;;21.60;44.30;;;;;;5016091;28;20444;-60
2022/06/16 03:15:07;;;;;;;;;;;21.70;44.30;;;;;;5017002;28;19925;-59
2022/06/16 03:17:33;;;;;;;;;;;21.60;44.30;;;;;;5016614;28;19933;-59
2022/06/16 03:20:00;;;;;;;;;;;21.70;44.40;;;;;;5036221;28;20389;-60
2022/06/16 03:22:27;;;;;;;;;;;21.60;44.30;;;;;;5051105;28;19970;-59
2022/06/16 03:24:54;;;;;;;;;;;21.60;44.40;;;;;;5023799;28;19925;-59
2022/06/16 03:27:22;;;;;;;;;;;21.60;44.40;;;;;;5016507;28;20019;-59
2022/06/16 03:29:49;;;;;;;;;;;21.60;44.40;;;;;;5034249;28;19949;-60
2022/06/16 03:32:15;;;;;;;;;;;21.60;44.40;;;;;;5033453;28;19955;-58
2022/06/16 03:34:42;;;;;;;;;;;21.60;44.40;;;;;;5030170;28;20353;-58
2022/06/16 03:37:09;;;;;;;;;;;21.60;44.40;;;;;;5034150;28;19925;-60
2022/06/16 03:39:36;;;;;;;;;;;21.60;44.50;;;;;;5017806;28;19979;-60
2022/06/16 03:42:03;;;;;;;;;;;21.60;44.50;;;;;;5027861;28;19932;-60
2022/06/16 03:44:31;;;;;;;;;;;21.60;44.50;;;;;;5036250;28;20429;-59
2022/06/16 03:46:58;;;;;;;;;;;21.60;44.50;;;;;;5015436;28;19932;-60
2022/06/16 03:49:24;;;;;;;;;;;21.60;44.50;;;;;;5032573;28;20424;-60
2022/06/16 03:51:51;;;;;;;;;;;21.60;44.50;;;;;;5024235;28;20011;-59
2022/06/16 03:54:18;;;;;;;;;;;21.60;44.50;;;;;;5014517;28;20375;-60
2022/06/16 03:56:45;;;;;;;;;;;21.60;44.50;;;;;;5045156;28;20016;-59
2022/06/16 03:59:12;;;;;;;;;;;21.60;44.50;;;;;;5032694;28;19929;-60
2022/06/16 04:01:40;;;;;;;;;;;21.60;44.50;;;;;;5014171;28;20492;-60
2022/06/16 04:04:06;;;;;;;;;;;21.60;44.50;;;;;;5016946;28;20019;-59
2022/06/16 04:06:33;;;;;;;;;;;21.60;44.50;;;;;;5015843;28;19928;-60
2022/06/16 04:09:00;;;;;;;;;;;21.60;44.50;;;;;;5040737;28;19932;-60
2022/06/16 04:11:30;;;;;;;;;;;21.60;44.60;;;;;;5024471;28;20296;-60
2022/06/16 04:14:00;;;;;;;;;;;21.60;44.60;;;;;;4997934;28;20479;-60
2022/06/16 04:16:27;;;;;;;;;;;21.60;44.50;;;;;;5011845;28;20036;-60
2022/06/16 04:18:55;;;;;;;;;;;21.60;44.60;;;;;;5024530;28;20052;-60
2022/06/16 04:21:22;;;;;;;;;;;21.60;44.60;;;;;;5026678;28;20299;-60
2022/06/16 04:23:49;;;;;;;;;;;21.60;44.60;;;;;;5015261;28;19940;-60
2022/06/16 04:26:15;;;;;;;;;;;21.60;44.70;;;;;;5018718;28;19987;-60
2022/06/16 04:28:42;;;;;;;;;;;21.60;44.70;;;;;;5014957;28;19925;-60
2022/06/16 04:31:09;;;;;;;;;;;21.60;44.70;;;;;;5014702;28;19925;-61
2022/06/16 04:33:36;;;;;;;;;;;21.60;44.70;;;;;;5032859;28;19929;-59
2022/06/16 04:36:05;;;;;;;;;;;21.50;44.70;;;;;;5036668;28;20314;-60
2022/06/16 04:38:32;;;;;;;;;;;21.60;44.70;;;;;;5030685;28;19925;-60
2022/06/16 04:40:59;;;;;;;;;;;21.60;44.80;;;;;;5032715;28;19932;-60
2022/06/16 04:43:26;;;;;;;;;;;21.60;44.80;;;;;;4994845;28;19926;-59
2022/06/16 04:45:53;;;;;;;;;;;21.60;44.90;;;;;;5016900;28;20414;-59
2022/06/16 04:48:19;;;;;;;;;;;21.50;44.70;;;;;;5024010;28;19925;-60
2022/06/16 04:50:46;;;;;;;;;;;21.60;44.90;;;;;;5032234;28;19925;-59
2022/06/16 04:53:14;;;;;;;;;;;21.50;44.80;;;;;;5014110;28;19948;-61
2022/06/16 04:55:41;;;;;;;;;;;21.60;44.80;;;;;;5028341;28;19925;-60
2022/06/16 04:58:08;;;;;;;;;;;21.50;44.80;;;;;;5014743;28;19933;-60
2022/06/16 05:00:35;;;;;;;;;;;21.60;44.90;;;;;;5031098;28;19936;-59
2022/06/16 05:03:13;;;;;;;;;;;21.60;44.90;;;;;;5056237;28;20337;-60
2022/06/16 05:05:40;;;;;;;;;;;21.60;44.90;;;;;;5024708;28;19948;-59
2022/06/16 05:08:07;;;;;;;;;;;21.60;44.90;;;;;;5010043;28;19932;-60
2022/06/16 05:10:35;;;;;;;;;;;21.60;45.00;;;;;;5014376;28;19933;-58
2022/06/16 05:13:02;;;;;;;;;;;21.50;44.90;;;;;;5026224;28;19929;-60
2022/06/16 05:15:29;;;;;;;;;;;21.60;45.00;;;;;;5030168;28;19926;-61
2022/06/16 05:17:55;;;;;;;;;;;21.50;45.00;;;;;;5023523;28;19929;-60
2022/06/16 05:20:22;;;;;;;;;;;21.60;45.10;;;;;;5011569;28;19933;-60
2022/06/16 05:22:49;;;;;;;;;;;21.50;45.00;;;;;;5012780;28;19925;-59
2022/06/16 05:25:16;;;;;;;;;;;21.50;45.00;;;;;;5024826;28;19925;-60
2022/06/16 05:27:44;;;;;;;;;;;21.50;45.10;;;;;;5024526;28;19974;-60
2022/06/16 05:30:11;;;;;;;;;;;21.50;45.10;;;;;;5018870;28;20021;-61
2022/06/16 05:32:37;;;;;;;;;;;21.50;45.10;;;;;;5020835;28;19965;-61
2022/06/16 05:35:05;;;;;;;;;;;21.50;45.10;;;;;;5034928;28;20011;-63
2022/06/16 05:37:32;;;;;;;;;;;21.50;45.20;;;;;;5029242;28;19933;-63
2022/06/16 05:40:00;;;;;;;;;;;21.50;45.10;;;;;;5025379;28;19963;-60
2022/06/16 05:42:27;;;;;;;;;;;21.50;45.10;;;;;;5020263;28;19928;-60
2022/06/16 05:44:55;;;;;;;;;;;21.50;45.10;;;;;;5022143;28;19974;-62
2022/06/16 05:47:21;;;;;;;;;;;21.50;45.20;;;;;;5035931;28;19925;-62
2022/06/16 05:49:48;;;;;;;;;;;21.50;45.20;;;;;;5013354;28;20282;-62
2022/06/16 05:52:17;;;;;;;;;;;21.50;45.20;;;;;;5005898;28;20322;-62
2022/06/16 05:54:44;;;;;;;;;;;21.60;45.40;;;;;;5030018;28;20437;-62
2022/06/16 05:57:11;;;;;;;;;;;21.50;45.30;;;;;;5018296;28;19929;-62
2022/06/16 05:59:38;;;;;;;;;;;21.60;45.40;;;;;;5018871;28;19925;-62
2022/06/16 06:02:06;;;;;;;;;;;21.50;45.40;;;;;;5013408;28;19925;-62
2022/06/16 06:04:33;;;;;;;;;;;21.50;45.40;;;;;;5004040;28;19979;-62
2022/06/16 06:07:00;;;;;;;;;;;21.50;45.40;;;;;;5030202;28;19926;-62
2022/06/16 06:17:41;;;;;;;;;;;21.50;45.50;;;;;;5012256;28;19940;-62
2022/06/16 06:20:10;;;;;;;;;;;21.50;45.50;;;;;;5033270;28;20306;-62
2022/06/16 06:22:37;;;;;;;;;;;21.50;45.60;;;;;;5028284;28;19925;-62
2022/06/16 06:25:04;;;;;;;;;;;21.50;45.60;;;;;;5034557;28;19999;-62
2022/06/16 06:27:31;;;;;;;;;;;21.50;45.60;;;;;;5049592;28;20440;-63
2022/06/16 06:29:58;;;;;;;;;;;21.50;45.60;;;;;;5017209;28;19952;-62
2022/06/16 06:32:25;;;;;;;;;;;21.50;45.70;;;;;;5034357;28;20322;-62
2022/06/16 06:34:53;;;;;;;;;;;21.50;45.70;;;;;;5047520;28;19981;-62
2022/06/16 06:37:21;;;;;;;;;;;21.50;45.70;;;;;;5040529;28;19925;-62
2022/06/16 06:39:47;;;;;;;;;;;21.50;45.70;;;;;;5044973;28;19979;-62
2022/06/16 06:42:14;;;;;;;;;;;21.50;45.80;;;;;;5017566;28;19972;-62
2022/06/16 06:44:41;;;;;;;;;;;21.50;45.80;;;;;;5047547;28;19971;-63
2022/06/16 06:47:08;;;;;;;;;;;21.50;46.40;;;;;;5006128;28;19971;-62
2022/06/16 06:49:35;;;;;;;;;;;21.50;45.80;;;;;;5016172;28;19929;-62
2022/06/16 06:52:03;;;;;;;;;;;21.50;45.80;;;;;;5016190;28;19937;-62
2022/06/16 06:54:31;;;;;;;;;;;21.50;45.90;;;;;;5022504;28;19929;-62
2022/06/16 06:56:57;;;;;;;;;;;21.50;46.00;;;;;;5027831;28;20274;-62
2022/06/16 06:59:24;;;;;;;;;;;21.50;46.20;;;;;;5016066;28;19929;-62
2022/06/16 07:01:51;;;;;;;;;;;21.50;46.30;;;;;;5013587;28;20375;-62
2022/06/16 07:04:19;;;;;;;;;;;21.50;46.30;;;;;;5015350;28;19948;-63
2022/06/16 07:06:46;;;;;;;;;;;21.50;46.40;;;;;;5020146;28;19979;-62
2022/06/16 07:09:14;;;;;;;;;;;21.50;46.40;;;;;;5041898;28;19929;-62
2022/06/16 07:11:41;;;;;;;;;;;21.50;46.50;;;;;;5048497;28;20004;-62
2022/06/16 07:14:08;;;;;;;;;;;21.50;46.40;;;;;;5034607;28;19926;-62
2022/06/16 07:16:35;;;;;;;;;;;21.50;46.50;;;;;;5014101;28;19925;-62
2022/06/16 07:19:01;;;;;;;;;;;21.50;46.50;;;;;;5028897;28;19932;-62
2022/06/16 07:21:29;;;;;;;;;;;21.40;46.60;;;;;;5045880;28;20448;-62
2022/06/16 07:23:56;;;;;;;;;;;21.40;46.60;;;;;;5030927;28;20032;-62
2022/06/16 07:26:24;;;;;;;;;;;21.40;46.60;;;;;;5000892;28;19925;-62
2022/06/16 07:28:51;;;;;;;;;;;21.40;46.60;;;;;;5009357;28;19926;-62
2022/06/16 07:31:18;;;;;;;;;;;21.40;46.50;;;;;;5031394;28;19929;-62
2022/06/16 07:33:44;;;;;;;;;;;21.40;46.50;;;;;;5011501;28;19925;-62
2022/06/16 07:36:11;;;;;;;;;;;21.40;46.40;;;;;;5004636;28;19979;-62
2022/06/16 07:38:38;;;;;;;;;;;21.40;46.40;;;;;;5006360;28;19975;-63
2022/06/16 07:43:50;;;;;;;;;;;21.40;46.40;;;;;;5025499;28;20006;-62
2022/06/16 07:46:17;;;;;;;;;;;21.40;46.30;;;;;;5030878;28;20444;-63
2022/06/16 07:48:44;;;;;;;;;;;21.50;46.40;;;;;;5021222;28;19934;-62
2022/06/16 07:51:14;;;;;;;;;;;21.40;46.20;;;;;;5029389;28;20417;-62
2022/06/16 07:53:40;;;;;;;;;;;21.40;46.20;;;;;;5015337;28;20048;-63
2022/06/16 07:56:07;;;;;;;;;;;21.40;46.20;;;;;;5047806;28;19999;-62
2022/06/16 07:58:34;;;;;;;;;;;21.40;46.20;;;;;;5032704;28;19979;-62
2022/06/16 08:01:04;;;;;;;;;;;21.50;46.20;;;;;;5027836;28;19971;-62
2022/06/16 08:03:31;;;;;;;;;;;21.50;46.10;;;;;;5025615;28;19932;-62
2022/06/16 08:05:58;;;;;;;;;;;21.50;46.10;;;;;;5007018;28;19929;-63
2022/06/16 08:08:25;;;;;;;;;;;21.50;46.10;;;;;;5004675;28;19937;-62
2022/06/16 08:10:52;;;;;;;;;;;21.40;46.00;;;;;;5032790;28;20294;-62
2022/06/16 08:13:18;;;;;;;;;;;21.50;46.00;;;;;;5014297;28;19937;-62
2022/06/16 08:15:46;;;;;;;;;;;21.50;46.00;;;;;;5014645;28;19935;-62
2022/06/16 08:18:14;;;;;;;;;;;21.50;45.90;;;;;;5041776;28;20505;-62
2022/06/16 08:20:41;;;;;;;;;;;21.50;45.80;;;;;;4995909;28;19936;-62
2022/06/16 08:23:08;;;;;;;;;;;21.50;45.80;;;;;;5007818;28;19934;-62
2022/06/16 08:25:34;;;;;;;;;;;21.50;45.80;;;;;;5012730;28;20016;-63
2022/06/16 08:28:03;;;;;;;;;;;21.50;45.70;;;;;;5014056;28;19929;-62
2022/06/16 08:30:30;;;;;;;;;;;21.50;45.70;;;;;;5028700;28;20012;-62
2022/06/16 08:32:57;;;;;;;;;;;21.50;45.60;;;;;;5014378;28;19925;-62
2022/06/16 08:35:25;;;;;;;;;;;21.50;45.60;;;;;;5014860;28;19932;-63
2022/06/16 08:37:52;;;;;;;;;;;21.50;45.60;;;;;;5014264;28;19925;-63
2022/06/16 08:40:19;;;;;;;;;;;21.50;45.60;;;;;;5032920;28;20004;-62
2022/06/16 08:42:47;;;;;;;;;;;21.50;45.60;;;;;;5028862;28;19929;-62
2022/06/16 08:45:17;;;;;;;;;;;21.50;45.50;;;;;;5011408;28;19925;-62
2022/06/16 08:47:45;;;;;;;;;;;21.50;45.50;;;;;;5002924;28;19925;-62
2022/06/16 08:50:21;;;;;;;;;;;21.50;45.50;;;;;;5013839;28;20416;-63
2022/06/16 08:52:53;;;;;;;;;;;21.50;45.50;;;;;;5012862;28;19929;-62
2022/06/16 08:55:20;;;;;;;;;;;21.50;45.40;;;;;;5010186;28;20576;-62
2022/06/16 08:57:51;;;;;;;;;;;21.50;45.30;;;;;;5012754;28;19929;-62
2022/06/16 09:00:19;;;;;;;;;;;21.50;45.10;;;;;;4998803;28;19955;-62
2022/06/16 09:02:47;;;;;;;;;;;21.50;45.10;;;;;;5013560;28;19933;-62
2022/06/16 09:05:22;;;;;;;;;;;21.50;45.00;;;;;;5024784;28;20049;-63
2022/06/16 09:07:53;;;;;;;;;;;21.50;45.00;;;;;;5024667;28;20192;-62
2022/06/16 09:10:24;;;;;;;;;;;21.50;45.00;;;;;;5013913;28;19987;-62
2022/06/16 09:12:55;;;;;;;;;;;21.40;44.80;;;;;;5026261;28;19936;-62
2022/06/16 09:15:24;;;;;;;;;;;21.40;44.70;;;;;;5013875;28;19929;-62
2022/06/16 09:18:07;;;;;;;;;;;21.40;44.60;;;;;;5003399;28;19925;-62
2022/06/16 09:20:36;;;;;;;;;;;21.40;44.50;;;;;;5006332;28;19929;-62
2022/06/16 09:23:08;;;;;;;;;;;21.40;44.50;;;;;;5013970;28;19979;-62
2022/06/16 09:25:44;;;;;;;;;;;21.40;44.40;;;;;;5013432;28;19957;-62
2022/06/16 09:28:12;;;;;;;;;;;21.40;44.30;;;;;;5045397;28;19960;-62
2022/06/16 09:30:39;;;;;;;;;;;21.40;44.20;;;;;;5043358;28;19936;-62
2022/06/16 09:33:06;;;;;;;;;;;21.40;44.10;;;;;;5008278;28;19925;-62
2022/06/16 09:35:35;;;;;;;;;;;21.40;44.10;;;;;;5046256;28;19980;-62
2022/06/16 09:38:03;;;;;;;;;;;21.40;44.00;;;;;;5009132;28;20012;-62
2022/06/16 09:40:33;;;;;;;;;;;21.40;43.80;;;;;;5003509;28;19987;-62
2022/06/16 09:43:01;;;;;;;;;;;21.40;43.70;;;;;;5005308;28;19925;-62
2022/06/16 09:45:28;;;;;;;;;;;21.40;43.60;;;;;;5028808;28;19979;-62
2022/06/16 09:48:01;;;;;;;;;;;21.40;43.50;;;;;;5028592;28;19936;-62
2022/06/16 09:50:30;;;;;;;;;;;21.40;43.50;;;;;;5046368;28;19925;-62
2022/06/16 09:52:58;;;;;;;;;;;21.40;43.50;;;;;;5043875;28;19925;-62
2022/06/16 09:55:29;;;;;;;;;;;21.40;43.50;;;;;;5004313;28;19993;-62
2022/06/16 09:57:58;;;;;;;;;;;21.40;43.50;;;;;;5029660;28;19932;-62
2022/06/16 10:00:25;;;;;;;;;;;21.40;43.50;;;;;;5043500;28;19929;-62
2022/06/16 10:02:53;;;;;;;;;;;21.40;43.40;;;;;;5045826;28;20023;-62
2022/06/16 10:05:22;;;;;;;;;;;21.40;43.20;;;;;;5005530;28;19944;-62
2022/06/16 10:07:54;;;;;;;;;;;21.40;43.20;;;;;;5028863;28;19933;-63
2022/06/16 10:10:23;;;;;;;;;;;21.40;43.20;;;;;;5037231;28;19929;-62
2022/06/16 10:12:54;;;;;;;;;;;21.40;43.00;;;;;;5011421;28;19940;-63
2022/06/16 10:15:22;;;;;;;;;;;21.40;43.00;;;;;;5019492;28;19979;-62
2022/06/16 10:17:51;;;;;;;;;;;21.40;43.00;;;;;;5010501;28;19929;-62
2022/06/16 10:20:18;;;;;;;;;;;21.40;43.10;;;;;;5023383;28;19925;-63
2022/06/16 10:22:46;;;;;;;;;;;21.40;43.10;;;;;;5012983;28;19929;-63
2022/06/16 10:25:14;;;;;;;;;;;21.40;43.20;;;;;;5014452;28;19928;-63
2022/06/16 10:27:42;;;;;;;;;;;21.40;43.30;;;;;;5015545;28;19925;-62
2022/06/16 10:30:11;;;;;;;;;;;21.40;43.30;;;;;;5026445;28;20037;-63
2022/06/16 10:32:41;;;;;;;;;;;21.50;43.30;;;;;;4999226;28;19948;-63
2022/06/16 10:35:08;;;;;;;;;;;21.50;43.30;;;;;;5025125;28;19925;-62
2022/06/16 10:37:35;;;;;;;;;;;21.50;43.30;;;;;;5012765;28;20012;-64
2022/06/16 10:40:03;;;;;;;;;;;21.50;43.30;;;;;;5012156;28;19929;-63
2022/06/16 10:42:31;;;;;;;;;;;21.40;43.20;;;;;;5008571;28;19987;-62
2022/06/16 10:44:59;;;;;;;;;;;21.50;43.20;;;;;;5024795;28;20282;-63
2022/06/16 10:47:33;;;;;;;;;;;21.50;43.20;;;;;;5008284;28;19980;-63
2022/06/16 10:50:01;;;;;;;;;;;21.50;43.20;;;;;;5000541;28;19937;-64
2022/06/16 10:52:29;;;;;;;;;;;21.50;43.30;;;;;;5031976;28;19979;-62
2022/06/16 10:54:57;;;;;;;;;;;21.50;43.30;;;;;;5014312;28;19929;-62
2022/06/16 10:57:24;;;;;;;;;;;21.50;43.30;;;;;;5016221;28;20357;-63
2022/06/16 10:59:52;;;;;;;;;;;21.50;43.30;;;;;;5015937;28;19937;-63
2022/06/16 11:02:22;;;;;;;;;;;21.50;43.30;;;;;;5015456;28;20016;-63
2022/06/16 11:04:56;;;;;;;;;;;21.50;43.30;;;;;;5023782;28;19929;-62
2022/06/16 11:07:24;;;;;;;;;;;21.50;43.40;;;;;;5048112;28;19936;-63
2022/06/16 11:09:51;;;;;;;;;;;21.50;43.30;;;;;;5030581;28;20326;-63
2022/06/16 11:12:19;;;;;;;;;;;21.50;43.30;;;;;;5007895;28;19986;-62
2022/06/16 11:14:46;;;;;;;;;;;21.50;43.40;;;;;;5041892;28;20016;-63
2022/06/16 11:17:17;;;;;;;;;;;21.50;43.40;;;;;;5031033;28;19925;-62
2022/06/16 11:19:44;;;;;;;;;;;21.60;43.50;;;;;;5031436;28;19929;-63
2022/06/16 11:22:14;;;;;;;;;;;21.60;43.40;;;;;;5014926;28;20314;-62
2022/06/16 11:24:44;;;;;;;;;;;21.60;43.40;;;;;;5015736;28;19960;-62
2022/06/16 11:27:12;;;;;;;;;;;21.60;43.40;;;;;;5031590;28;19925;-63
2022/06/16 11:29:39;;;;;;;;;;;21.60;43.30;;;;;;5031941;28;19933;-63
2022/06/16 11:32:07;;;;;;;;;;;21.60;43.30;;;;;;5031721;28;20402;-63
2022/06/16 11:34:34;;;;;;;;;;;21.60;43.80;;;;;;5011927;28;19983;-64
2022/06/16 11:37:28;;;;;;;;;;;21.60;43.20;;;;;;5045822;28;19954;-63
2022/06/16 11:40:00;;;;;;;;;;;21.60;43.20;;;;;;5003936;28;19925;-63
2022/06/16 11:42:36;;;;;;;;;;;21.50;43.10;;;;;;5013010;28;19925;-64
2022/06/16 11:45:04;;;;;;;;;;;21.60;43.20;;;;;;5013084;28;19925;-63
2022/06/16 11:47:35;;;;;;;;;;;21.60;43.20;;;;;;5026441;28;19932;-63
2022/06/16 11:50:03;;;;;;;;;;;21.60;43.20;;;;;;5032425;28;19979;-63
2022/06/16 11:52:31;;;;;;;;;;;21.60;43.20;;;;;;5022643;28;20097;-63
2022/06/16 11:55:04;;;;;;;;;;;21.60;43.20;;;;;;5008034;28;19925;-62
2022/06/16 11:57:32;;;;;;;;;;;21.60;43.20;;;;;;5005548;28;20418;-62
2022/06/16 12:00:02;;;;;;;;;;;21.60;43.20;;;;;;5012777;28;19936;-62
2022/06/16 12:02:34;;;;;;;;;;;21.60;43.10;;;;;;5010611;28;19956;-63
2022/06/16 12:05:03;;;;;;;;;;;21.60;43.10;;;;;;5013219;28;20028;-62
2022/06/16 12:07:39;;;;;;;;;;;21.60;43.10;;;;;;5004979;28;19929;-63
2022/06/16 12:10:09;;;;;;;;;;;21.60;43.00;;;;;;5006116;28;19925;-62
2022/06/16 12:12:37;;;;;;;;;;;21.60;42.90;;;;;;5030936;28;19925;-63
2022/06/16 12:15:06;;;;;;;;;;;21.60;42.90;;;;;;5032524;28;19925;-63
2022/06/16 12:17:36;;;;;;;;;;;21.60;43.00;;;;;;5031773;28;19935;-62
2022/06/16 12:20:04;;;;;;;;;;;21.60;43.00;;;;;;5010396;28;20353;-62
2022/06/16 12:22:33;;;;;;;;;;;21.60;42.90;;;;;;5021279;28;20406;-63
2022/06/16 12:25:01;;;;;;;;;;;21.60;42.90;;;;;;5022688;28;19925;-63
2022/06/16 12:27:30;;;;;;;;;;;21.60;42.90;;;;;;5016420;28;19999;-62
2022/06/16 12:29:58;;;;;;;;;;;21.60;42.80;;;;;;5014379;28;19933;-63
2022/06/16 12:32:29;;;;;;;;;;;21.60;42.70;;;;;;5011108;28;19925;-63
2022/06/16 12:35:02;;;;;;;;;;;21.60;42.70;;;;;;5030151;28;20006;-62
2022/06/16 12:37:30;;;;;;;;;;;21.60;42.80;;;;;;5025375;28;20329;-63
2022/06/16 12:39:58;;;;;;;;;;;21.60;42.80;;;;;;5018635;28;19925;-62
2022/06/16 12:42:27;;;;;;;;;;;21.60;42.80;;;;;;5012364;28;20008;-63
2022/06/16 12:44:55;;;;;;;;;;;21.60;42.80;;;;;;5041808;28;19933;-63
2022/06/16 12:47:23;;;;;;;;;;;21.60;42.80;;;;;;5010479;28;19933;-62
2022/06/16 12:49:52;;;;;;;;;;;21.60;42.90;;;;;;5013559;28;19929;-63
2022/06/16 12:52:20;;;;;;;;;;;21.60;42.90;;;;;;5029431;28;19925;-62
2022/06/16 12:54:48;;;;;;;;;;;21.70;43.00;;;;;;5014035;28;19952;-62
2022/06/16 12:57:15;;;;;;;;;;;21.60;42.90;;;;;;5012812;28;19937;-63
2022/06/16 12:59:43;;;;;;;;;;;21.70;43.00;;;;;;5012110;28;19925;-62
2022/06/16 13:02:12;;;;;;;;;;;21.70;43.00;;;;;;5028481;28;19925;-62
2022/06/16 13:04:40;;;;;;;;;;;21.70;43.00;;;;;;5013602;28;20397;-62
2022/06/16 13:07:12;;;;;;;;;;;21.70;42.90;;;;;;5026963;28;19925;-62
2022/06/16 13:09:39;;;;;;;;;;;21.70;42.90;;;;;;5015136;28;20460;-63
2022/06/16 13:12:07;;;;;;;;;;;21.70;42.90;;;;;;4998495;28;19956;-62
2022/06/16 13:14:34;;;;;;;;;;;21.70;43.00;;;;;;5008538;28;19928;-63
2022/06/16 13:17:02;;;;;;;;;;;21.70;43.00;;;;;;5026998;28;20434;-63
2022/06/16 13:19:34;;;;;;;;;;;21.70;43.00;;;;;;5013683;28;19929;-63
2022/06/16 13:22:01;;;;;;;;;;;21.70;43.00;;;;;;5013084;28;20386;-63
2022/06/16 13:24:35;;;;;;;;;;;21.70;43.00;;;;;;5012963;28;19991;-63
2022/06/16 13:27:07;;;;;;;;;;;21.70;43.00;;;;;;5014857;28;20362;-63
2022/06/16 13:29:41;;;;;;;;;;;21.70;43.00;;;;;;5027150;28;20015;-63
2022/06/16 13:32:20;;;;;;;;;;;21.70;43.10;;;;;;5012316;28;20218;-63
2022/06/16 13:34:53;;;;;;;;;;;21.70;43.00;;;;;;5018311;28;19935;-63
2022/06/16 13:37:30;;;;;;;;;;;21.70;43.10;;;;;;5010080;28;20337;-63
2022/06/16 13:39:59;;;;;;;;;;;21.70;43.00;;;;;;5010308;28;19929;-63
2022/06/16 13:42:43;;;;;;;;;;;21.70;43.00;;;;;;5013382;28;19996;-63
2022/06/16 13:45:27;;;;;;;;;;;21.70;43.00;;;;;;5016986;28;19934;-64
2022/06/16 13:48:09;;;;;;;;;;;21.70;43.00;;;;;;5017775;28;19960;-63
2022/06/16 13:50:43;;;;;;;;;;;21.70;43.10;;;;;;5021122;28;19944;-62
2022/06/16 13:53:09;;;;;;;;;;;21.70;43.10;;;;;;5041777;28;19925;-63
2022/06/16 13:55:37;;;;;;;;;;;21.70;43.10;;;;;;5046996;28;19929;-63
2022/06/16 13:58:07;;;;;;;;;;;21.80;43.20;;;;;;5028236;28;19933;-63
2022/06/16 14:00:35;;;;;;;;;;;21.80;43.20;;;;;;5005432;28;20382;-63
2022/06/16 14:03:02;;;;;;;;;;;21.80;43.20;;;;;;5012103;28;19925;-63
2022/06/16 14:05:30;;;;;;;;;;;21.80;43.30;;;;;;5004164;28;20303;-63
2022/06/16 14:07:59;;;;;;;;;;;21.80;43.30;;;;;;5003327;28;20285;-63
2022/06/16 14:10:26;;;;;;;;;;;21.80;43.30;;;;;;5029590;28;20399;-63
2022/06/16 14:13:00;;;;;;;;;;;21.80;43.40;;;;;;5030068;28;19936;-62
2022/06/16 14:15:47;;;;;;;;;;;21.80;43.40;;;;;;5012805;28;20385;-63
2022/06/16 14:18:17;;;;;;;;;;;21.80;43.40;;;;;;5028444;28;19929;-62
2022/06/16 14:20:45;;;;;;;;;;;21.80;43.50;;;;;;5009845;28;20022;-63
2022/06/16 14:23:14;;;;;;;;;;;21.80;43.50;;;;;;5012152;28;19968;-63
2022/06/16 14:25:43;;;;;;;;;;;21.80;43.50;;;;;;5012689;28;19925;-63
2022/06/16 14:28:10;;;;;;;;;;;21.80;43.50;;;;;;5027165;28;19932;-63
2022/06/16 14:30:37;;;;;;;;;;;21.80;43.50;;;;;;5022629;28;20437;-63
2022/06/16 14:33:06;;;;;;;;;;;21.80;43.50;;;;;;5029416;28;20417;-63
2022/06/16 14:35:34;;;;;;;;;;;21.80;43.50;;;;;;5048168;28;19937;-63
2022/06/16 14:38:02;;;;;;;;;;;21.80;43.60;;;;;;5015694;28;19929;-63
2022/06/16 14:40:32;;;;;;;;;;;21.80;43.50;;;;;;5015528;28;19932;-63